sensor_id;sensor_type;location;lat;lon;timestamp;P1;durP1;ratioP1;P2;durP2;ratioP2
51792;SDS011;37850;53.178;6.376;2022-12-05T00:02:08;35.53;;;19.17;;
51792;SDS011;37850;53.178;6.376;2022-12-05T00:04:34;36.97;;;18.27;;
51792;SDS011;37850;53.178;6.376;2022-12-05T00:07:00;36.58;;;19.35;;
51792;SDS011;37850;53.178;6.376;2022-12-05T00:09:26;35.28;;;18.65;;
51792;SDS011;37850;53.178;6.376;2022-12-05T00:11:52;33.67;;;17.98;;
51792;SDS011;37850;53.178;6.376;2022-12-05T00:14:17;34.58;;;18.25;;
51792;SDS011;37850;53.178;6.376;2022-12-05T00:16:43;32.45;;;17.15;;
51792;SDS011;37850;53.178;6.376;2022-12-05T00:19:11;34.03;;;17.88;;
51792;SDS011;37850;53.178;6.376;2022-12-05T00:21:39;33.47;;;18.48;;
51792;SDS011;37850;53.178;6.376;2022-12-05T00:24:06;32.40;;;17.45;;
51792;SDS011;37850;53.178;6.376;2022-12-05T00:26:33;32.55;;;16.65;;
51792;SDS011;37850;53.178;6.376;2022-12-05T00:29:00;33.45;;;18.30;;
51792;SDS011;37850;53.178;6.376;2022-12-05T00:31:26;33.25;;;18.20;;
51792;SDS011;37850;53.178;6.376;2022-12-05T00:33:53;36.35;;;18.27;;
51792;SDS011;37850;53.178;6.376;2022-12-05T00:36:20;36.30;;;18.67;;
51792;SDS011;37850;53.178;6.376;2022-12-05T00:38:48;35.60;;;18.73;;
51792;SDS011;37850;53.178;6.376;2022-12-05T00:41:16;35.80;;;18.48;;
51792;SDS011;37850;53.178;6.376;2022-12-05T00:43:43;36.25;;;19.30;;
51792;SDS011;37850;53.178;6.376;2022-12-05T00:46:14;33.13;;;17.80;;
51792;SDS011;37850;53.178;6.376;2022-12-05T00:48:42;36.72;;;19.75;;
51792;SDS011;37850;53.178;6.376;2022-12-05T00:51:18;34.13;;;19.02;;
51792;SDS011;37850;53.178;6.376;2022-12-05T00:53:46;34.42;;;18.10;;
51792;SDS011;37850;53.178;6.376;2022-12-05T00:56:14;36.75;;;19.75;;
51792;SDS011;37850;53.178;6.376;2022-12-05T00:58:41;42.63;;;20.27;;
51792;SDS011;37850;53.178;6.376;2022-12-05T01:01:09;39.72;;;19.38;;
51792;SDS011;37850;53.178;6.376;2022-12-05T01:03:37;36.70;;;19.60;;
51792;SDS011;37850;53.178;6.376;2022-12-05T01:06:03;38.08;;;20.08;;
51792;SDS011;37850;53.178;6.376;2022-12-05T01:08:33;36.33;;;19.50;;
51792;SDS011;37850;53.178;6.376;2022-12-05T01:10:59;38.45;;;20.25;;
51792;SDS011;37850;53.178;6.376;2022-12-05T01:13:26;37.67;;;19.92;;
51792;SDS011;37850;53.178;6.376;2022-12-05T01:15:53;39.00;;;20.50;;
51792;SDS011;37850;53.178;6.376;2022-12-05T01:18:19;39.47;;;20.15;;
51792;SDS011;37850;53.178;6.376;2022-12-05T01:20:46;36.13;;;19.95;;
51792;SDS011;37850;53.178;6.376;2022-12-05T01:23:12;41.28;;;20.35;;
51792;SDS011;37850;53.178;6.376;2022-12-05T01:25:39;40.65;;;19.95;;
51792;SDS011;37850;53.178;6.376;2022-12-05T01:28:06;39.13;;;19.33;;
51792;SDS011;37850;53.178;6.376;2022-12-05T01:30:35;40.67;;;19.27;;
51792;SDS011;37850;53.178;6.376;2022-12-05T01:33:05;35.10;;;18.00;;
51792;SDS011;37850;53.178;6.376;2022-12-05T01:35:31;34.15;;;17.55;;
51792;SDS011;37850;53.178;6.376;2022-12-05T01:38:01;31.92;;;17.67;;
51792;SDS011;37850;53.178;6.376;2022-12-05T01:40:27;31.70;;;16.33;;
51792;SDS011;37850;53.178;6.376;2022-12-05T01:42:55;28.65;;;16.45;;
51792;SDS011;37850;53.178;6.376;2022-12-05T01:45:43;30.40;;;15.20;;
51792;SDS011;37850;53.178;6.376;2022-12-05T01:48:17;28.05;;;15.68;;
51792;SDS011;37850;53.178;6.376;2022-12-05T01:50:46;26.10;;;15.13;;
51792;SDS011;37850;53.178;6.376;2022-12-05T01:53:12;26.30;;;15.38;;
51792;SDS011;37850;53.178;6.376;2022-12-05T01:55:39;23.20;;;13.98;;
51792;SDS011;37850;53.178;6.376;2022-12-05T01:58:05;25.58;;;15.18;;
51792;SDS011;37850;53.178;6.376;2022-12-05T02:00:33;28.27;;;14.25;;
51792;SDS011;37850;53.178;6.376;2022-12-05T02:03:00;29.25;;;14.57;;
51792;SDS011;37850;53.178;6.376;2022-12-05T02:05:31;22.98;;;13.13;;
51792;SDS011;37850;53.178;6.376;2022-12-05T02:08:00;22.45;;;12.43;;
51792;SDS011;37850;53.178;6.376;2022-12-05T02:10:33;22.85;;;12.45;;
51792;SDS011;37850;53.178;6.376;2022-12-05T02:13:04;26.23;;;13.38;;
51792;SDS011;37850;53.178;6.376;2022-12-05T02:16:33;22.23;;;11.77;;
51792;SDS011;37850;53.178;6.376;2022-12-05T02:30:17;22.05;;;11.85;;
51792;SDS011;37850;53.178;6.376;2022-12-05T02:32:59;19.65;;;10.95;;
51792;SDS011;37850;53.178;6.376;2022-12-05T02:46:33;17.25;;;9.40;;
51792;SDS011;37850;53.178;6.376;2022-12-05T02:49:03;17.20;;;10.57;;
51792;SDS011;37850;53.178;6.376;2022-12-05T02:51:33;16.67;;;9.70;;
51792;SDS011;37850;53.178;6.376;2022-12-05T02:54:04;17.58;;;10.45;;
51792;SDS011;37850;53.178;6.376;2022-12-05T02:56:34;17.02;;;9.02;;
51792;SDS011;37850;53.178;6.376;2022-12-05T02:59:02;15.57;;;9.15;;
51792;SDS011;37850;53.178;6.376;2022-12-05T03:01:31;18.48;;;9.25;;
51792;SDS011;37850;53.178;6.376;2022-12-05T03:03:58;16.52;;;9.30;;
51792;SDS011;37850;53.178;6.376;2022-12-05T03:06:30;18.00;;;8.77;;
51792;SDS011;37850;53.178;6.376;2022-12-05T03:09:14;16.73;;;8.82;;
51792;SDS011;37850;53.178;6.376;2022-12-05T03:11:46;16.40;;;9.60;;
51792;SDS011;37850;53.178;6.376;2022-12-05T03:14:20;17.08;;;9.43;;
51792;SDS011;37850;53.178;6.376;2022-12-05T03:16:50;13.68;;;8.77;;
51792;SDS011;37850;53.178;6.376;2022-12-05T03:19:41;17.40;;;8.85;;
51792;SDS011;37850;53.178;6.376;2022-12-05T03:24:57;15.13;;;8.32;;
51792;SDS011;37850;53.178;6.376;2022-12-05T03:29:57;18.38;;;9.18;;
51792;SDS011;37850;53.178;6.376;2022-12-05T03:37:46;15.27;;;8.55;;
51792;SDS011;37850;53.178;6.376;2022-12-05T03:40:33;16.45;;;8.35;;
51792;SDS011;37850;53.178;6.376;2022-12-05T03:45:47;14.55;;;8.07;;
51792;SDS011;37850;53.178;6.376;2022-12-05T03:50:51;15.77;;;8.20;;
51792;SDS011;37850;53.178;6.376;2022-12-05T03:53:22;16.40;;;8.82;;
51792;SDS011;37850;53.178;6.376;2022-12-05T03:56:03;15.70;;;8.77;;
51792;SDS011;37850;53.178;6.376;2022-12-05T03:58:38;14.88;;;8.40;;
51792;SDS011;37850;53.178;6.376;2022-12-05T04:01:09;14.35;;;8.75;;
51792;SDS011;37850;53.178;6.376;2022-12-05T04:03:52;14.88;;;8.40;;
51792;SDS011;37850;53.178;6.376;2022-12-05T04:06:30;19.85;;;9.15;;
51792;SDS011;37850;53.178;6.376;2022-12-05T04:09:14;16.98;;;9.20;;
51792;SDS011;37850;53.178;6.376;2022-12-05T04:11:52;17.03;;;9.63;;
51792;SDS011;37850;53.178;6.376;2022-12-05T04:14:34;15.70;;;8.95;;
51792;SDS011;37850;53.178;6.376;2022-12-05T04:17:08;18.75;;;10.05;;
51792;SDS011;37850;53.178;6.376;2022-12-05T04:19:47;18.70;;;10.30;;
51792;SDS011;37850;53.178;6.376;2022-12-05T04:22:36;17.52;;;9.18;;
51792;SDS011;37850;53.178;6.376;2022-12-05T04:25:03;16.95;;;9.73;;
51792;SDS011;37850;53.178;6.376;2022-12-05T04:30:49;18.02;;;9.32;;
51792;SDS011;37850;53.178;6.376;2022-12-05T04:36:00;17.52;;;9.63;;
51792;SDS011;37850;53.178;6.376;2022-12-05T04:41:35;18.73;;;9.93;;
51792;SDS011;37850;53.178;6.376;2022-12-05T04:44:05;16.23;;;9.35;;
51792;SDS011;37850;53.178;6.376;2022-12-05T04:46:34;15.33;;;8.83;;
51792;SDS011;37850;53.178;6.376;2022-12-05T04:49:03;19.17;;;9.38;;
51792;SDS011;37850;53.178;6.376;2022-12-05T04:51:33;24.23;;;10.50;;
51792;SDS011;37850;53.178;6.376;2022-12-05T04:54:04;18.08;;;9.32;;
51792;SDS011;37850;53.178;6.376;2022-12-05T04:56:38;24.35;;;10.07;;
51792;SDS011;37850;53.178;6.376;2022-12-05T04:59:08;18.77;;;9.90;;
51792;SDS011;37850;53.178;6.376;2022-12-05T05:01:37;17.77;;;10.10;;
51792;SDS011;37850;53.178;6.376;2022-12-05T05:04:26;19.20;;;9.07;;
51792;SDS011;37850;53.178;6.376;2022-12-05T05:06:59;19.75;;;9.98;;
51792;SDS011;37850;53.178;6.376;2022-12-05T05:09:29;18.17;;;8.98;;
51792;SDS011;37850;53.178;6.376;2022-12-05T05:11:54;22.35;;;10.20;;
51792;SDS011;37850;53.178;6.376;2022-12-05T05:14:20;20.73;;;10.10;;
51792;SDS011;37850;53.178;6.376;2022-12-05T05:16:46;17.25;;;9.23;;
51792;SDS011;37850;53.178;6.376;2022-12-05T05:19:12;18.85;;;9.82;;
51792;SDS011;37850;53.178;6.376;2022-12-05T05:21:39;20.35;;;9.55;;
51792;SDS011;37850;53.178;6.376;2022-12-05T05:24:06;21.00;;;10.15;;
51792;SDS011;37850;53.178;6.376;2022-12-05T05:26:35;18.85;;;10.13;;
51792;SDS011;37850;53.178;6.376;2022-12-05T05:29:02;18.98;;;9.85;;
51792;SDS011;37850;53.178;6.376;2022-12-05T05:31:29;20.58;;;9.95;;
51792;SDS011;37850;53.178;6.376;2022-12-05T05:33:55;21.42;;;9.23;;
51792;SDS011;37850;53.178;6.376;2022-12-05T05:36:22;18.10;;;9.10;;
51792;SDS011;37850;53.178;6.376;2022-12-05T05:38:50;18.80;;;9.45;;
51792;SDS011;37850;53.178;6.376;2022-12-05T05:41:25;17.85;;;9.90;;
51792;SDS011;37850;53.178;6.376;2022-12-05T05:43:52;16.00;;;8.52;;
51792;SDS011;37850;53.178;6.376;2022-12-05T05:46:21;19.77;;;9.77;;
51792;SDS011;37850;53.178;6.376;2022-12-05T05:48:48;15.60;;;9.13;;
51792;SDS011;37850;53.178;6.376;2022-12-05T05:51:15;19.90;;;9.15;;
51792;SDS011;37850;53.178;6.376;2022-12-05T05:53:42;16.00;;;8.93;;
51792;SDS011;37850;53.178;6.376;2022-12-05T05:56:09;22.67;;;10.18;;
51792;SDS011;37850;53.178;6.376;2022-12-05T05:58:37;17.90;;;9.02;;
51792;SDS011;37850;53.178;6.376;2022-12-05T06:01:14;20.42;;;9.38;;
51792;SDS011;37850;53.178;6.376;2022-12-05T06:03:44;17.27;;;9.33;;
51792;SDS011;37850;53.178;6.376;2022-12-05T06:06:12;19.25;;;9.90;;
51792;SDS011;37850;53.178;6.376;2022-12-05T06:08:39;22.17;;;9.80;;
51792;SDS011;37850;53.178;6.376;2022-12-05T06:11:08;15.25;;;8.70;;
51792;SDS011;37850;53.178;6.376;2022-12-05T06:13:35;19.20;;;9.23;;
51792;SDS011;37850;53.178;6.376;2022-12-05T06:16:03;18.50;;;9.00;;
51792;SDS011;37850;53.178;6.376;2022-12-05T06:18:30;18.80;;;9.27;;
51792;SDS011;37850;53.178;6.376;2022-12-05T06:20:56;18.65;;;9.23;;
51792;SDS011;37850;53.178;6.376;2022-12-05T06:23:23;15.07;;;8.73;;
51792;SDS011;37850;53.178;6.376;2022-12-05T06:25:50;19.55;;;9.52;;
51792;SDS011;37850;53.178;6.376;2022-12-05T06:28:17;21.27;;;9.10;;
51792;SDS011;37850;53.178;6.376;2022-12-05T06:30:44;17.77;;;8.82;;
51792;SDS011;37850;53.178;6.376;2022-12-05T06:33:10;19.05;;;9.02;;
51792;SDS011;37850;53.178;6.376;2022-12-05T06:35:36;17.67;;;8.90;;
51792;SDS011;37850;53.178;6.376;2022-12-05T06:38:02;18.50;;;8.45;;
51792;SDS011;37850;53.178;6.376;2022-12-05T06:40:29;18.17;;;8.68;;
51792;SDS011;37850;53.178;6.376;2022-12-05T06:42:55;21.25;;;9.15;;
51792;SDS011;37850;53.178;6.376;2022-12-05T06:45:21;18.08;;;8.82;;
51792;SDS011;37850;53.178;6.376;2022-12-05T06:47:47;21.33;;;8.32;;
51792;SDS011;37850;53.178;6.376;2022-12-05T06:50:12;18.50;;;8.35;;
51792;SDS011;37850;53.178;6.376;2022-12-05T06:52:38;21.02;;;8.60;;
51792;SDS011;37850;53.178;6.376;2022-12-05T06:55:04;20.48;;;8.77;;
51792;SDS011;37850;53.178;6.376;2022-12-05T06:57:30;20.20;;;8.93;;
51792;SDS011;37850;53.178;6.376;2022-12-05T06:59:56;19.90;;;9.25;;
51792;SDS011;37850;53.178;6.376;2022-12-05T07:02:40;20.88;;;8.35;;
51792;SDS011;37850;53.178;6.376;2022-12-05T07:05:10;24.05;;;9.18;;
51792;SDS011;37850;53.178;6.376;2022-12-05T07:07:35;21.10;;;9.00;;
51792;SDS011;37850;53.178;6.376;2022-12-05T07:10:02;19.73;;;9.48;;
51792;SDS011;37850;53.178;6.376;2022-12-05T07:12:32;23.08;;;9.73;;
51792;SDS011;37850;53.178;6.376;2022-12-05T07:15:02;25.55;;;10.63;;
51792;SDS011;37850;53.178;6.376;2022-12-05T07:17:28;18.30;;;9.32;;
51792;SDS011;37850;53.178;6.376;2022-12-05T07:19:59;21.83;;;9.68;;
51792;SDS011;37850;53.178;6.376;2022-12-05T07:22:25;21.98;;;9.68;;
51792;SDS011;37850;53.178;6.376;2022-12-05T07:24:51;18.60;;;9.82;;
51792;SDS011;37850;53.178;6.376;2022-12-05T07:27:17;17.05;;;8.82;;
51792;SDS011;37850;53.178;6.376;2022-12-05T07:29:43;20.70;;;9.93;;
51792;SDS011;37850;53.178;6.376;2022-12-05T07:32:09;20.05;;;9.68;;
51792;SDS011;37850;53.178;6.376;2022-12-05T07:34:34;22.05;;;9.98;;
51792;SDS011;37850;53.178;6.376;2022-12-05T07:37:00;25.33;;;9.27;;
51792;SDS011;37850;53.178;6.376;2022-12-05T07:39:26;16.77;;;9.27;;
51792;SDS011;37850;53.178;6.376;2022-12-05T07:41:52;17.08;;;8.70;;
51792;SDS011;37850;53.178;6.376;2022-12-05T07:44:17;22.13;;;9.20;;
51792;SDS011;37850;53.178;6.376;2022-12-05T07:46:43;21.48;;;8.88;;
51792;SDS011;37850;53.178;6.376;2022-12-05T07:49:09;16.17;;;8.43;;
51792;SDS011;37850;53.178;6.376;2022-12-05T07:51:35;20.67;;;9.02;;
51792;SDS011;37850;53.178;6.376;2022-12-05T07:54:01;19.50;;;9.27;;
51792;SDS011;37850;53.178;6.376;2022-12-05T07:56:27;17.40;;;7.65;;
51792;SDS011;37850;53.178;6.376;2022-12-05T07:58:53;21.30;;;8.10;;
51792;SDS011;37850;53.178;6.376;2022-12-05T08:01:26;16.85;;;8.30;;
51792;SDS011;37850;53.178;6.376;2022-12-05T08:03:53;18.75;;;7.22;;
51792;SDS011;37850;53.178;6.376;2022-12-05T08:06:21;17.30;;;8.27;;
51792;SDS011;37850;53.178;6.376;2022-12-05T08:08:49;20.42;;;8.02;;
51792;SDS011;37850;53.178;6.376;2022-12-05T08:11:33;20.23;;;7.82;;
51792;SDS011;37850;53.178;6.376;2022-12-05T08:14:00;21.13;;;8.20;;
51792;SDS011;37850;53.178;6.376;2022-12-05T08:16:28;18.55;;;7.97;;
51792;SDS011;37850;53.178;6.376;2022-12-05T08:18:55;17.90;;;7.28;;
51792;SDS011;37850;53.178;6.376;2022-12-05T08:21:22;18.65;;;8.35;;
51792;SDS011;37850;53.178;6.376;2022-12-05T08:23:49;21.13;;;9.88;;
51792;SDS011;37850;53.178;6.376;2022-12-05T08:26:19;16.55;;;8.85;;
51792;SDS011;37850;53.178;6.376;2022-12-05T08:28:51;17.20;;;8.13;;
51792;SDS011;37850;53.178;6.376;2022-12-05T08:31:21;19.52;;;8.48;;
51792;SDS011;37850;53.178;6.376;2022-12-05T08:33:49;17.10;;;7.95;;
51792;SDS011;37850;53.178;6.376;2022-12-05T08:36:16;17.98;;;7.32;;
51792;SDS011;37850;53.178;6.376;2022-12-05T08:38:43;16.17;;;7.28;;
51792;SDS011;37850;53.178;6.376;2022-12-05T08:41:10;21.33;;;7.28;;
51792;SDS011;37850;53.178;6.376;2022-12-05T08:43:40;14.15;;;7.25;;
51792;SDS011;37850;53.178;6.376;2022-12-05T08:46:07;16.85;;;6.78;;
51792;SDS011;37850;53.178;6.376;2022-12-05T08:48:33;15.65;;;7.95;;
51792;SDS011;37850;53.178;6.376;2022-12-05T08:51:04;20.38;;;7.47;;
51792;SDS011;37850;53.178;6.376;2022-12-05T08:53:34;25.17;;;7.97;;
51792;SDS011;37850;53.178;6.376;2022-12-05T08:56:02;17.02;;;7.18;;
51792;SDS011;37850;53.178;6.376;2022-12-05T08:58:31;18.35;;;7.85;;
51792;SDS011;37850;53.178;6.376;2022-12-05T09:03:34;17.83;;;8.23;;
51792;SDS011;37850;53.178;6.376;2022-12-05T09:08:35;19.00;;;7.03;;
51792;SDS011;37850;53.178;6.376;2022-12-05T09:11:05;15.35;;;7.05;;
51792;SDS011;37850;53.178;6.376;2022-12-05T09:13:35;19.60;;;8.05;;
51792;SDS011;37850;53.178;6.376;2022-12-05T09:16:09;20.30;;;7.90;;
51792;SDS011;37850;53.178;6.376;2022-12-05T09:18:40;20.75;;;8.95;;
51792;SDS011;37850;53.178;6.376;2022-12-05T09:21:11;24.67;;;8.65;;
51792;SDS011;37850;53.178;6.376;2022-12-05T09:23:38;24.30;;;8.73;;
51792;SDS011;37850;53.178;6.376;2022-12-05T09:26:05;20.65;;;8.65;;
51792;SDS011;37850;53.178;6.376;2022-12-05T09:28:36;22.90;;;9.63;;
51792;SDS011;37850;53.178;6.376;2022-12-05T09:31:06;24.52;;;9.25;;
51792;SDS011;37850;53.178;6.376;2022-12-05T09:33:34;26.13;;;9.70;;
51792;SDS011;37850;53.178;6.376;2022-12-05T09:36:05;21.08;;;9.13;;
51792;SDS011;37850;53.178;6.376;2022-12-05T09:38:34;21.65;;;9.73;;
51792;SDS011;37850;53.178;6.376;2022-12-05T09:43:42;21.00;;;9.68;;
51792;SDS011;37850;53.178;6.376;2022-12-05T09:46:47;24.58;;;9.63;;
51792;SDS011;37850;53.178;6.376;2022-12-05T09:49:15;26.80;;;10.18;;
51792;SDS011;37850;53.178;6.376;2022-12-05T09:51:42;21.42;;;9.45;;
51792;SDS011;37850;53.178;6.376;2022-12-05T09:54:10;21.20;;;9.70;;
51792;SDS011;37850;53.178;6.376;2022-12-05T09:56:37;23.00;;;9.45;;
51792;SDS011;37850;53.178;6.376;2022-12-05T09:59:08;30.13;;;9.95;;
51792;SDS011;37850;53.178;6.376;2022-12-05T10:04:45;23.75;;;9.88;;
51792;SDS011;37850;53.178;6.376;2022-12-05T10:07:21;25.13;;;10.05;;
51792;SDS011;37850;53.178;6.376;2022-12-05T10:15:31;31.45;;;10.30;;
51792;SDS011;37850;53.178;6.376;2022-12-05T10:18:02;28.42;;;9.75;;
51792;SDS011;37850;53.178;6.376;2022-12-05T10:20:40;23.98;;;10.23;;
51792;SDS011;37850;53.178;6.376;2022-12-05T10:25:49;20.60;;;9.80;;
51792;SDS011;37850;53.178;6.376;2022-12-05T10:28:37;23.48;;;9.98;;
51792;SDS011;37850;53.178;6.376;2022-12-05T10:31:12;25.05;;;9.80;;
51792;SDS011;37850;53.178;6.376;2022-12-05T10:33:42;22.42;;;10.07;;
51792;SDS011;37850;53.178;6.376;2022-12-05T10:36:15;20.33;;;9.63;;
51792;SDS011;37850;53.178;6.376;2022-12-05T10:38:41;19.17;;;9.63;;
51792;SDS011;37850;53.178;6.376;2022-12-05T10:41:09;25.38;;;10.27;;
51792;SDS011;37850;53.178;6.376;2022-12-05T10:43:41;21.42;;;9.57;;
51792;SDS011;37850;53.178;6.376;2022-12-05T10:46:09;23.58;;;9.30;;
51792;SDS011;37850;53.178;6.376;2022-12-05T10:48:38;25.65;;;9.07;;
51792;SDS011;37850;53.178;6.376;2022-12-05T10:51:05;25.92;;;10.15;;
51792;SDS011;37850;53.178;6.376;2022-12-05T10:53:41;22.05;;;9.68;;
51792;SDS011;37850;53.178;6.376;2022-12-05T10:59:04;19.83;;;9.10;;
51792;SDS011;37850;53.178;6.376;2022-12-05T11:01:31;22.17;;;10.35;;
51792;SDS011;37850;53.178;6.376;2022-12-05T11:03:58;24.17;;;10.00;;
51792;SDS011;37850;53.178;6.376;2022-12-05T11:06:27;24.13;;;10.27;;
51792;SDS011;37850;53.178;6.376;2022-12-05T11:08:55;20.88;;;9.32;;
51792;SDS011;37850;53.178;6.376;2022-12-05T11:11:27;16.67;;;8.75;;
51792;SDS011;37850;53.178;6.376;2022-12-05T11:13:55;19.58;;;9.15;;
51792;SDS011;37850;53.178;6.376;2022-12-05T11:16:24;18.77;;;9.32;;
51792;SDS011;37850;53.178;6.376;2022-12-05T11:18:54;21.38;;;8.95;;
51792;SDS011;37850;53.178;6.376;2022-12-05T11:21:20;16.60;;;8.02;;
51792;SDS011;37850;53.178;6.376;2022-12-05T11:23:47;21.38;;;8.73;;
51792;SDS011;37850;53.178;6.376;2022-12-05T11:26:35;17.55;;;7.60;;
51792;SDS011;37850;53.178;6.376;2022-12-05T11:29:02;15.23;;;8.50;;
51792;SDS011;37850;53.178;6.376;2022-12-05T11:31:29;18.08;;;8.00;;
51792;SDS011;37850;53.178;6.376;2022-12-05T11:33:59;13.68;;;7.55;;
51792;SDS011;37850;53.178;6.376;2022-12-05T11:36:47;19.88;;;7.43;;
51792;SDS011;37850;53.178;6.376;2022-12-05T11:39:17;16.38;;;6.15;;
51792;SDS011;37850;53.178;6.376;2022-12-05T11:45:10;15.40;;;7.13;;
51792;SDS011;37850;53.178;6.376;2022-12-05T11:57:27;13.17;;;6.37;;
51792;SDS011;37850;53.178;6.376;2022-12-05T12:00:11;15.73;;;5.93;;
51792;SDS011;37850;53.178;6.376;2022-12-05T12:13:44;10.85;;;5.57;;
51792;SDS011;37850;53.178;6.376;2022-12-05T12:16:39;16.33;;;5.50;;
51792;SDS011;37850;53.178;6.376;2022-12-05T12:19:50;11.55;;;4.97;;
51792;SDS011;37850;53.178;6.376;2022-12-05T12:22:41;10.85;;;4.80;;
51792;SDS011;37850;53.178;6.376;2022-12-05T12:31:08;9.98;;;4.53;;
51792;SDS011;37850;53.178;6.376;2022-12-05T12:33:46;16.05;;;4.57;;
51792;SDS011;37850;53.178;6.376;2022-12-05T12:37:07;8.00;;;4.25;;
51792;SDS011;37850;53.178;6.376;2022-12-05T12:39:43;11.30;;;4.57;;
51792;SDS011;37850;53.178;6.376;2022-12-05T12:42:44;11.10;;;4.30;;
51792;SDS011;37850;53.178;6.376;2022-12-05T12:50:45;11.60;;;4.53;;
51792;SDS011;37850;53.178;6.376;2022-12-05T12:55:49;10.80;;;4.07;;
51792;SDS011;37850;53.178;6.376;2022-12-05T13:03:49;10.02;;;4.43;;
51792;SDS011;37850;53.178;6.376;2022-12-05T13:09:06;9.85;;;3.90;;
51792;SDS011;37850;53.178;6.376;2022-12-05T13:11:44;14.50;;;3.85;;
51792;SDS011;37850;53.178;6.376;2022-12-05T13:14:13;10.73;;;3.35;;
51792;SDS011;37850;53.178;6.376;2022-12-05T13:16:42;11.73;;;4.00;;
51792;SDS011;37850;53.178;6.376;2022-12-05T13:19:23;12.45;;;3.90;;
51792;SDS011;37850;53.178;6.376;2022-12-05T13:22:01;10.63;;;3.67;;
51792;SDS011;37850;53.178;6.376;2022-12-05T13:24:29;10.05;;;3.53;;
51792;SDS011;37850;53.178;6.376;2022-12-05T13:27:04;11.60;;;3.80;;
51792;SDS011;37850;53.178;6.376;2022-12-05T13:29:34;9.85;;;3.80;;
51792;SDS011;37850;53.178;6.376;2022-12-05T13:32:04;11.60;;;3.65;;
51792;SDS011;37850;53.178;6.376;2022-12-05T13:37:00;12.57;;;4.35;;
51792;SDS011;37850;53.178;6.376;2022-12-05T13:39:54;8.90;;;3.92;;
51792;SDS011;37850;53.178;6.376;2022-12-05T13:42:39;12.38;;;3.90;;
51792;SDS011;37850;53.178;6.376;2022-12-05T13:45:08;10.55;;;3.92;;
51792;SDS011;37850;53.178;6.376;2022-12-05T13:53:25;11.45;;;3.80;;
51792;SDS011;37850;53.178;6.376;2022-12-05T14:17:19;11.40;;;3.53;;
51792;SDS011;37850;53.178;6.376;2022-12-05T14:19:57;10.98;;;3.65;;
51792;SDS011;37850;53.178;6.376;2022-12-05T14:22:28;9.05;;;4.00;;
51792;SDS011;37850;53.178;6.376;2022-12-05T14:25:05;13.02;;;4.07;;
51792;SDS011;37850;53.178;6.376;2022-12-05T14:30:44;11.88;;;4.00;;
51792;SDS011;37850;53.178;6.376;2022-12-05T14:33:24;11.00;;;4.15;;
51792;SDS011;37850;53.178;6.376;2022-12-05T14:35:50;8.77;;;3.72;;
51792;SDS011;37850;53.178;6.376;2022-12-05T14:38:19;10.60;;;3.83;;
51792;SDS011;37850;53.178;6.376;2022-12-05T14:40:51;14.70;;;4.47;;
51792;SDS011;37850;53.178;6.376;2022-12-05T14:43:28;10.07;;;3.88;;
51792;SDS011;37850;53.178;6.376;2022-12-05T14:45:59;11.35;;;4.05;;
51792;SDS011;37850;53.178;6.376;2022-12-05T14:48:30;7.80;;;3.60;;
51792;SDS011;37850;53.178;6.376;2022-12-05T14:50:59;12.00;;;3.78;;
51792;SDS011;37850;53.178;6.376;2022-12-05T15:04:06;11.55;;;4.43;;
51792;SDS011;37850;53.178;6.376;2022-12-05T15:06:43;8.52;;;3.95;;
51792;SDS011;37850;53.178;6.376;2022-12-05T15:12:14;13.68;;;4.85;;
51792;SDS011;37850;53.178;6.376;2022-12-05T15:14:46;9.10;;;4.65;;
51792;SDS011;37850;53.178;6.376;2022-12-05T15:17:21;15.05;;;5.18;;
51792;SDS011;37850;53.178;6.376;2022-12-05T15:19:53;10.63;;;4.97;;
51792;SDS011;37850;53.178;6.376;2022-12-05T15:22:32;10.77;;;4.88;;
51792;SDS011;37850;53.178;6.376;2022-12-05T15:28:04;9.85;;;4.43;;
51792;SDS011;37850;53.178;6.376;2022-12-05T15:30:42;13.45;;;5.00;;
51792;SDS011;37850;53.178;6.376;2022-12-05T15:33:18;14.48;;;4.85;;
51792;SDS011;37850;53.178;6.376;2022-12-05T15:35:44;12.35;;;4.45;;
51792;SDS011;37850;53.178;6.376;2022-12-05T15:38:24;11.82;;;4.68;;
51792;SDS011;37850;53.178;6.376;2022-12-05T15:40:57;12.60;;;4.38;;
51792;SDS011;37850;53.178;6.376;2022-12-05T15:48:56;14.02;;;6.43;;
51792;SDS011;37850;53.178;6.376;2022-12-05T15:51:26;12.98;;;5.38;;
51792;SDS011;37850;53.178;6.376;2022-12-05T15:54:06;10.85;;;4.20;;
51792;SDS011;37850;53.178;6.376;2022-12-05T15:56:42;13.95;;;4.43;;
51792;SDS011;37850;53.178;6.376;2022-12-05T15:59:20;13.05;;;5.18;;
51792;SDS011;37850;53.178;6.376;2022-12-05T16:01:50;11.15;;;4.80;;
51792;SDS011;37850;53.178;6.376;2022-12-05T16:04:32;9.65;;;4.65;;
51792;SDS011;37850;53.178;6.376;2022-12-05T16:09:37;15.20;;;5.18;;
51792;SDS011;37850;53.178;6.376;2022-12-05T16:12:13;11.18;;;4.75;;
51792;SDS011;37850;53.178;6.376;2022-12-05T16:14:40;10.45;;;4.63;;
51792;SDS011;37850;53.178;6.376;2022-12-05T16:17:07;11.15;;;5.22;;
51792;SDS011;37850;53.178;6.376;2022-12-05T16:19:38;18.70;;;5.28;;
51792;SDS011;37850;53.178;6.376;2022-12-05T16:24:39;11.13;;;5.40;;
51792;SDS011;37850;53.178;6.376;2022-12-05T16:29:38;11.95;;;4.40;;
51792;SDS011;37850;53.178;6.376;2022-12-05T16:35:00;12.05;;;5.40;;
51792;SDS011;37850;53.178;6.376;2022-12-05T16:37:27;12.35;;;5.82;;
51792;SDS011;37850;53.178;6.376;2022-12-05T16:39:54;12.07;;;5.30;;
51792;SDS011;37850;53.178;6.376;2022-12-05T16:42:22;15.50;;;5.50;;
51792;SDS011;37850;53.178;6.376;2022-12-05T16:47:25;12.90;;;5.25;;
51792;SDS011;37850;53.178;6.376;2022-12-05T16:50:33;10.43;;;5.15;;
51792;SDS011;37850;53.178;6.376;2022-12-05T16:53:00;15.30;;;6.07;;
51792;SDS011;37850;53.178;6.376;2022-12-05T16:55:27;11.43;;;5.05;;
51792;SDS011;37850;53.178;6.376;2022-12-05T16:58:00;11.48;;;5.00;;
51792;SDS011;37850;53.178;6.376;2022-12-05T17:00:26;11.48;;;5.57;;
51792;SDS011;37850;53.178;6.376;2022-12-05T17:02:52;10.43;;;5.53;;
51792;SDS011;37850;53.178;6.376;2022-12-05T17:05:18;14.00;;;5.57;;
51792;SDS011;37850;53.178;6.376;2022-12-05T17:07:43;13.18;;;5.32;;
51792;SDS011;37850;53.178;6.376;2022-12-05T17:10:09;16.10;;;5.80;;
51792;SDS011;37850;53.178;6.376;2022-12-05T17:12:35;13.80;;;5.57;;
51792;SDS011;37850;53.178;6.376;2022-12-05T17:15:01;11.82;;;5.50;;
51792;SDS011;37850;53.178;6.376;2022-12-05T17:17:27;13.15;;;5.57;;
51792;SDS011;37850;53.178;6.376;2022-12-05T17:19:53;13.90;;;5.63;;
51792;SDS011;37850;53.178;6.376;2022-12-05T17:22:18;13.77;;;5.07;;
51792;SDS011;37850;53.178;6.376;2022-12-05T17:24:44;13.38;;;5.30;;
51792;SDS011;37850;53.178;6.376;2022-12-05T17:27:10;12.23;;;5.18;;
51792;SDS011;37850;53.178;6.376;2022-12-05T17:29:37;14.50;;;5.05;;
51792;SDS011;37850;53.178;6.376;2022-12-05T17:32:03;13.07;;;5.05;;
51792;SDS011;37850;53.178;6.376;2022-12-05T17:34:29;11.75;;;5.50;;
51792;SDS011;37850;53.178;6.376;2022-12-05T17:36:55;17.88;;;8.13;;
51792;SDS011;37850;53.178;6.376;2022-12-05T17:39:21;20.60;;;8.77;;
51792;SDS011;37850;53.178;6.376;2022-12-05T17:41:47;11.57;;;5.25;;
51792;SDS011;37850;53.178;6.376;2022-12-05T17:44:13;12.07;;;4.78;;
51792;SDS011;37850;53.178;6.376;2022-12-05T17:46:40;10.75;;;4.93;;
51792;SDS011;37850;53.178;6.376;2022-12-05T17:49:13;10.02;;;4.47;;
51792;SDS011;37850;53.178;6.376;2022-12-05T17:51:40;11.43;;;4.28;;
51792;SDS011;37850;53.178;6.376;2022-12-05T17:54:07;9.60;;;4.25;;
51792;SDS011;37850;53.178;6.376;2022-12-05T17:56:33;9.50;;;3.92;;
51792;SDS011;37850;53.178;6.376;2022-12-05T17:58:59;9.30;;;4.25;;